Time;durP1;ratioP1;P1;durP2;ratioP2;P2;SDS_P1;SDS_P2;PMS_P1;PMS_P2;Temp;Humidity;BMP_temperature;BMP_pressure;BME280_temperature;BME280_humidity;BME280_pressure;Samples;Min_cycle;Max_cycle;Signal;HPM_P1;HPM_P2
2022/01/30 00:01:05;;;;;;;10.75;4.90;;;6.70;99.90;;;;;;4807932;29;20517;-96
2022/01/30 00:04:05;;;;;;;14.38;5.60;;;6.60;99.90;;;;;;4806518;29;20050;-94
2022/01/30 00:06:49;;;;;;;13.25;5.82;;;6.60;99.90;;;;;;4803782;29;20039;-96
2022/01/30 00:09:26;;;;;;;13.10;6.00;;;6.50;99.90;;;;;;4793948;29;20077;-94
2022/01/30 00:12:14;;;;;;;14.90;4.30;;;6.90;99.90;;;;;;4804809;29;20056;-93
2022/01/30 00:14:57;;;;;;;17.85;5.88;;;;;;;;;;4806265;29;20080;-95
2022/01/30 00:17:37;;;;;;;16.42;5.40;;;;;;;;;;4811209;29;20137;-96
2022/01/30 00:20:40;;;;;;;23.70;5.05;;;6.40;99.90;;;;;;4828327;29;20088;-95
2022/01/30 00:23:24;;;;;;;13.10;5.07;;;;;;;;;;4822498;29;20038;-94
2022/01/30 00:26:10;;;;;;;11.82;5.35;;;6.40;99.90;;;;;;4823944;29;20098;-95
2022/01/30 00:29:16;;;;;;;26.58;7.88;;;6.30;99.90;;;;;;4825757;29;20030;-94
2022/01/30 00:32:04;;;;;;;19.08;7.70;;;6.20;99.90;;;;;;4845379;29;20041;-95
2022/01/30 00:34:31;;;;;;;13.95;6.10;;;;;;;;;;4815730;29;20046;-95
2022/01/30 00:37:09;;;;;;;16.77;6.55;;;6.20;99.90;;;;;;4828790;29;20455;-96
2022/01/30 00:39:51;;;;;;;13.80;4.43;;;6.10;99.90;;;;;;4829141;29;20053;-95
2022/01/30 00:42:56;;;;;;;6.55;4.60;;;6.10;99.90;;;;;;4844831;29;20033;-94
2022/01/30 00:45:44;;;;;;;20.35;5.97;;;6.10;99.90;;;;;;4825572;29;20061;-94
2022/01/30 00:48:15;;;;;;;17.13;5.50;;;;;;;;;;4809728;29;20038;-95
2022/01/30 00:50:48;;;;;;;11.15;6.00;;;6.10;99.90;;;;;;4820642;29;20039;-95
2022/01/30 00:53:27;;;;;;;28.23;6.60;;;6.10;99.90;;;;;;4791897;29;20080;-96
2022/01/30 00:56:08;;;;;;;16.25;5.65;;;6.00;99.90;;;;;;4790957;29;20047;-95
2022/01/30 00:58:48;;;;;;;7.93;4.13;;;;;;;;;;4807627;29;20038;-95
2022/01/30 01:01:39;;;;;;;;;;;;;;;;;;;;;
2022/01/30 01:04:14;;;;;;;14.45;4.70;;;;;;;;;;4824405;29;20084;-96
2022/01/30 01:07:00;;;;;;;24.35;6.97;;;5.90;99.90;;;;;;4824158;29;20110;-95
2022/01/30 01:10:01;;;;;;;12.18;5.75;;;5.90;99.90;;;;;;4824056;29;20046;-94
2022/01/30 01:24:43;;;;;;;23.90;6.45;;;6.00;99.90;;;;;;4811876;29;20055;-94
2022/01/30 01:27:30;;;;;;;12.10;3.38;;;6.00;99.90;;;;;;4847138;29;20037;-95
2022/01/30 01:30:49;;;;;;;;;;;7.60;99.90;;;;;;4838898;29;20061;-94
2022/01/30 01:43:15;;;;;;;10.20;5.32;;;5.80;99.90;;;;;;4818217;29;20078;-94
2022/01/30 01:45:50;;;;;;;22.70;8.02;;;;;;;;;;4830765;29;20046;-95
2022/01/30 01:51:35;;;;;;;18.15;5.25;;;5.70;99.90;;;;;;4827269;29;20068;-95
2022/01/30 01:54:06;;;;;;;20.40;5.78;;;;;;;;;;4812915;29;20072;-94
2022/01/30 01:56:41;;;;;;;12.40;4.47;;;5.70;99.90;;;;;;4811551;29;20031;-95
2022/01/30 01:59:44;;;;;;;27.63;6.95;;;5.70;99.90;;;;;;4798925;29;20063;-94
2022/01/30 02:02:48;;;;;;;18.77;5.05;;;5.60;99.90;;;;;;4845021;29;20061;-94
2022/01/30 02:05:25;;;;;;;14.95;4.78;;;;;;;;;;4822279;29;20043;-95
2022/01/30 02:11:40;;;;;;;13.88;4.35;;;5.50;99.90;;;;;;4824001;29;20046;-94
2022/01/30 02:26:36;;;;;;;15.68;5.10;;;5.70;99.90;;;;;;4822121;29;20042;-94
2022/01/30 02:29:20;;;;;;;18.63;6.40;;;5.70;99.90;;;;;;4828892;29;20072;-94
2022/01/30 02:32:02;;;;;;;21.27;7.43;;;5.70;99.90;;;;;;4829579;29;20039;-95
2022/01/30 02:35:05;;;;;;;14.20;5.43;;;5.70;99.90;;;;;;4815508;29;20504;-95
2022/01/30 02:37:39;;;;;;;18.92;5.82;;;5.70;99.90;;;;;;4828482;29;20057;-95
2022/01/30 02:40:19;;;;;;;10.27;5.13;;;5.60;99.90;;;;;;4827518;29;20054;-94
2022/01/30 02:43:20;;;;;;;14.70;4.22;;;5.60;99.90;;;;;;4832775;29;20041;-95
2022/01/30 02:46:21;;;;;;;24.10;7.78;;;5.60;99.90;;;;;;4843666;29;20052;-95
2022/01/30 02:49:23;;;;;;;;;;;8.10;99.90;;;;;;4840682;29;20042;-94
2022/01/30 02:51:47;;;;;;;6.40;3.95;;;;;;;;;;4847079;29;19919;-95
2022/01/30 02:54:35;;;;;;;11.32;6.40;;;5.50;99.90;;;;;;4832585;29;20038;-95
2022/01/30 02:57:15;;;;;;;11.90;5.03;;;5.50;99.90;;;;;;4819381;29;20453;-95
2022/01/30 02:59:41;;;;;;;19.42;8.02;;;;;;;;;;4831279;29;20046;-94
2022/01/30 03:02:16;;;;;;;19.30;4.65;;;;;;;;;;4821011;29;20042;-94
2022/01/30 03:04:42;;;;;;;26.02;5.00;;;;;;;;;;4845577;29;20046;-94
2022/01/30 03:07:22;;;;;;;12.50;4.97;;;5.40;99.90;;;;;;4832376;29;20119;-94
2022/01/30 03:10:03;;;;;;;23.75;8.35;;;;;;;;;;4831594;29;20034;-94
2022/01/30 03:12:34;;;;;;;17.10;7.00;;;5.30;99.90;;;;;;4846468;29;20038;-94
2022/01/30 03:15:09;;;;;;;16.13;6.70;;;5.30;99.90;;;;;;4831553;29;20110;-94
2022/01/30 03:17:48;;;;;;;7.75;4.82;;;5.30;99.90;;;;;;4831455;29;20030;-95
2022/01/30 03:20:17;;;;;;;13.70;4.75;;;;;;;;;;4817690;29;20068;-95
2022/01/30 03:22:51;;;;;;;14.27;6.95;;;;;;;;;;4830422;29;20033;-95
2022/01/30 03:25:23;;;;;;;18.55;5.40;;;;;;;;;;4845731;29;20073;-95
2022/01/30 03:27:55;;;;;;;18.73;5.28;;;;;;;;;;4845539;29;20034;-95
2022/01/30 03:30:44;;;;;;;18.20;6.35;;;5.20;99.90;;;;;;4831691;29;20053;-95
2022/01/30 03:33:18;;;;;;;16.77;4.47;;;;;;;;;;4831147;29;20038;-95
2022/01/30 03:35:53;;;;;;;8.80;5.07;;;5.20;99.90;;;;;;4830916;29;20038;-95
2022/01/30 03:38:22;;;;;;;14.18;4.88;;;;;;;;;;4830149;29;20032;-95
2022/01/30 03:41:09;;;;;;;24.05;6.90;;;5.20;99.90;;;;;;4830479;29;20050;-95
2022/01/30 03:43:39;;;;;;;16.80;9.15;;;;;;;;;;4832677;29;20054;-94
2022/01/30 03:46:08;;;;;;;18.48;6.13;;;;;;;;;;4846311;29;20034;-94
2022/01/30 03:48:46;;;;;;;12.95;5.20;;;;;;;;;;4845818;29;20038;-94
2022/01/30 03:54:32;;;;;;;17.02;5.90;;;5.00;99.90;;;;;;4828362;29;20034;-94
2022/01/30 03:57:14;;;;;;;23.27;7.47;;;4.90;99.90;;;;;;4827159;29;20038;-94
2022/01/30 03:59:51;;;;;;;20.35;5.63;;;;;;;;;;4815337;29;20576;-95
2022/01/30 04:02:28;;;;;;;11.70;6.00;;;5.00;99.90;;;;;;4826046;29;20053;-94
2022/01/30 04:05:10;;;;;;;11.82;7.70;;;5.00;99.90;;;;;;4827319;29;20061;-94
2022/01/30 04:10:46;;;;;;;13.43;4.10;;;;;;;;;;4826762;29;20034;-95
2022/01/30 04:17:03;;;;;;;20.05;5.63;;;5.20;99.90;;;;;;4817138;29;20057;-95
2022/01/30 04:23:09;;;;;;;18.20;6.20;;;;;;;;;;4841799;29;20046;-94
2022/01/30 04:26:20;;;;;;;15.93;6.00;;;5.40;99.90;;;;;;4828624;29;20043;-95
2022/01/30 04:29:17;;;;;;;15.98;6.28;;;5.30;99.90;;;;;;4829427;29;20021;-94
2022/01/30 04:32:33;;;;;;;14.73;5.25;;;5.40;99.90;;;;;;4776935;30;20495;-95
2022/01/30 04:35:28;;;;;;;20.48;6.22;;;5.50;99.90;;;;;;4778317;30;20039;-95
2022/01/30 04:41:21;;;;;;;29.98;6.68;;;5.40;99.90;;;;;;4831772;29;19955;-94
2022/01/30 04:57:37;;;;;;;29.33;7.78;;;5.40;99.90;;;;;;4831341;29;20034;-95
2022/01/30 05:03:54;;;;;;;21.55;7.30;;;5.40;99.90;;;;;;4825376;29;20062;-94
2022/01/30 05:06:54;;;;;;;25.00;7.72;;;5.50;99.90;;;;;;4813374;29;20046;-94
2022/01/30 05:09:50;;;;;;;14.15;5.18;;;5.40;99.90;;;;;;4842857;29;20134;-94
2022/01/30 05:12:46;;;;;;;21.38;6.53;;;;;;;;;;4813313;29;20054;-94
2022/01/30 05:15:26;;;;;;;19.90;5.80;;;5.50;99.90;;;;;;4886759;24;20054;-96
2022/01/30 05:18:24;;;;;;;21.17;5.45;;;5.40;99.90;;;;;;4845495;29;20040;-93
2022/01/30 05:20:57;;;;;;;6.88;5.85;;;5.10;99.90;;;;;;4858514;29;20038;-94
2022/01/30 05:23:39;;;;;;;16.20;5.00;;;;;;;;;;4857895;29;20042;-94
2022/01/30 05:26:15;;;;;;;12.20;4.78;;;;;;;;;;4859904;29;20038;-94
2022/01/30 05:29:18;;;;;;;16.98;5.65;;;5.60;99.90;;;;;;4834816;29;20045;-95
2022/01/30 05:31:51;;;;;;;6.90;4.90;;;;;;;;;;4856990;29;20110;-93
2022/01/30 05:34:42;;;;;;;19.92;5.97;;;5.50;99.90;;;;;;4843188;29;20041;-92
2022/01/30 05:37:20;;;;;;;9.27;3.80;;;5.40;99.90;;;;;;4832903;29;20053;-92
2022/01/30 05:40:39;;;;;;;11.35;3.15;;;5.40;99.90;;;;;;4859882;29;20064;-93
2022/01/30 05:43:29;;;;;;;17.30;5.72;;;;;;;;;;4838242;29;20038;-94
2022/01/30 05:46:28;;;;;;;14.50;7.53;;;5.30;99.90;;;;;;4846730;29;20069;-94
2022/01/30 05:49:36;;;;;;;17.60;4.03;;;5.20;99.90;;;;;;4843890;29;20034;-96
2022/01/30 05:52:37;;;;;;;15.02;5.75;;;;;;;;;;4859414;29;20037;-94
2022/01/30 05:55:27;;;;;;;11.60;5.15;;;;;;;;;;4854392;29;20038;-93
2022/01/30 05:58:10;;;;;;;14.32;4.63;;;5.10;99.90;;;;;;4838679;29;20030;-94
2022/01/30 06:01:10;;;;;;;16.45;5.57;;;5.00;99.90;;;;;;4851885;29;20070;-93
2022/01/30 06:03:49;;;;;;;7.40;4.65;;;5.00;99.90;;;;;;4847657;29;20412;-94
2022/01/30 06:06:27;;;;;;;14.07;5.75;;;5.00;99.90;;;;;;4863241;29;20118;-95
2022/01/30 06:11:58;;;;;;;13.30;6.53;;;5.00;99.90;;;;;;4863094;29;20034;-94
2022/01/30 06:14:32;;;;;;;3.53;2.40;;;;;;;;;;4829649;29;20062;-95
2022/01/30 06:17:15;;;;;;;19.80;5.72;;;4.90;99.90;;;;;;4846301;29;20038;-95
2022/01/30 06:20:37;;;;;;;10.63;4.22;;;4.90;99.90;;;;;;4820158;29;20053;-94
2022/01/30 06:24:28;;;;;;;13.93;4.65;;;4.90;99.90;;;;;;4826324;29;20049;-94
2022/01/30 06:26:52;;;;;;;15.80;5.25;;;;;;;;;;4834183;29;20106;-94
2022/01/30 06:29:49;;;;;;;8.52;4.53;;;4.90;99.90;;;;;;4843847;29;20041;-94
2022/01/30 06:32:38;;;;;;;15.65;6.18;;;4.80;99.90;;;;;;4819952;29;20049;-93
2022/01/30 06:35:35;;;;;;;;;;;4.90;99.90;;;;;;4818105;29;20057;-93
2022/01/30 06:38:38;;;;;;;19.35;5.22;;;4.80;99.90;;;;;;4841900;29;20286;-94
2022/01/30 06:41:28;;;;;;;21.63;5.28;;;4.80;99.90;;;;;;4820443;29;20049;-94
2022/01/30 06:44:19;;;;;;;9.27;4.90;;;4.80;99.90;;;;;;4845434;29;20141;-94
2022/01/30 06:47:22;;;;;;;16.88;4.15;;;4.80;99.90;;;;;;4827862;29;20035;-94
2022/01/30 06:50:14;;;;;;;21.00;6.53;;;4.70;99.90;;;;;;4834853;29;20089;-93
2022/01/30 06:53:25;;;;;;;;;;;;;;;;;;;;;
2022/01/30 06:56:39;;;;;;;11.18;4.93;;;;;;;;;;4826482;29;20120;-93
2022/01/30 06:59:27;;;;;;;16.33;3.72;;;;;;;;;;4844302;29;20038;-94
2022/01/30 07:02:18;;;;;;;12.88;5.20;;;;;;;;;;4845280;29;20041;-94
2022/01/30 07:05:08;;;;;;;11.95;5.07;;;4.50;99.90;;;;;;4843244;29;20045;-94
2022/01/30 07:08:41;;;;;;;14.60;4.45;;;5.40;99.90;;;;;;4821199;29;20046;-93
2022/01/30 07:11:23;;;;;;;14.25;4.53;;;;;;;;;;4816996;29;20046;-94
2022/01/30 07:13:57;;;;;;;18.95;4.38;;;4.70;99.90;;;;;;4829558;29;20081;-94
2022/01/30 07:16:29;;;;;;;8.38;4.60;;;4.80;99.90;;;;;;4815800;29;20062;-94
2022/01/30 07:18:55;;;;;;;14.32;6.50;;;;;;;;;;4813087;29;20050;-95
2022/01/30 07:21:29;;;;;;;11.10;6.22;;;4.80;99.90;;;;;;4846726;29;20018;-94
2022/01/30 07:24:04;;;;;;;9.52;5.68;;;5.30;99.90;;;;;;4844371;29;20050;-94
2022/01/30 07:26:32;;;;;;;30.40;23.27;;;5.40;99.90;;;;;;4840656;29;20061;-94
2022/01/30 07:28:57;;;;;;;11.77;4.65;;;5.50;99.90;;;;;;4840979;29;20026;-95
2022/01/30 07:31:24;;;;;;;14.43;8.32;;;;;;;;;;4825218;29;20105;-93
2022/01/30 07:33:50;;;;;;;17.88;9.95;;;4.80;99.90;;;;;;4840731;29;20037;-92
2022/01/30 07:36:16;;;;;;;12.90;6.43;;;;;;;;;;4843446;29;20039;-93
2022/01/30 07:38:42;;;;;;;12.35;5.05;;;;;;;;;;4852595;29;20057;-94
2022/01/30 07:41:08;;;;;;;8.60;4.53;;;4.90;99.90;;;;;;4822339;29;20042;-93
2022/01/30 07:43:35;;;;;;;31.05;7.53;;;;;;;;;;4821873;29;20106;-93
2022/01/30 07:46:04;;;;;;;13.52;6.60;;;;;;;;;;4822700;29;20038;-93
2022/01/30 07:48:30;;;;;;;9.07;4.03;;;;;;;;;;4852764;29;20035;-93
2022/01/30 07:50:59;;;;;;;11.48;4.07;;;;;;;;;;4851877;29;20039;-94
2022/01/30 07:53:25;;;;;;;19.10;5.80;;;;;;;;;;4840756;29;20029;-93
2022/01/30 07:55:51;;;;;;;9.85;4.75;;;5.00;99.90;;;;;;4855270;29;20071;-93
2022/01/30 07:58:17;;;;;;;10.65;5.38;;;;;;;;;;4824968;29;20030;-92
2022/01/30 08:00:43;;;;;;;12.65;5.45;;;4.90;99.90;;;;;;4855235;29;20123;-94
2022/01/30 08:03:10;;;;;;;5.88;5.22;;;4.90;99.90;;;;;;4839955;29;20030;-93
2022/01/30 08:05:38;;;;;;;11.63;8.07;;;4.90;99.90;;;;;;4832341;29;20143;-93
2022/01/30 08:08:04;;;;;;;15.23;5.10;;;;;;;;;;4836787;29;20497;-93
2022/01/30 08:10:33;;;;;;;15.38;6.03;;;5.00;99.90;;;;;;4853973;29;20070;-93
2022/01/30 08:12:59;;;;;;;12.68;5.13;;;;;;;;;;4839662;29;20018;-93
2022/01/30 08:15:26;;;;;;;15.23;7.60;;;;;;;;;;4854202;29;20062;-93
2022/01/30 08:17:52;;;;;;;27.08;6.85;;;5.10;99.90;;;;;;4854700;29;20038;-93
2022/01/30 08:20:20;;;;;;;9.57;4.70;;;;;;;;;;4839668;29;20045;-94
2022/01/30 08:22:48;;;;;;;8.75;4.22;;;5.10;99.90;;;;;;4840360;29;20060;-93
2022/01/30 08:25:18;;;;;;;13.63;4.45;;;5.10;99.90;;;;;;4839941;29;20080;-93
2022/01/30 08:27:45;;;;;;;9.38;4.68;;;;;;;;;;4854770;29;20033;-93
2022/01/30 08:30:13;;;;;;;9.68;4.70;;;5.00;99.90;;;;;;4855027;29;20165;-94
2022/01/30 08:32:49;;;;;;;9.38;4.80;;;5.10;99.90;;;;;;4825309;29;20065;-93
2022/01/30 08:35:16;;;;;;;10.45;4.85;;;5.10;99.90;;;;;;4840379;29;20041;-93
2022/01/30 08:37:42;;;;;;;8.77;3.92;;;5.50;99.90;;;;;;4839742;29;20086;-92
2022/01/30 08:40:10;;;;;;;7.55;4.40;;;5.10;99.90;;;;;;4840110;29;20034;-94
2022/01/30 08:42:39;;;;;;;11.93;5.57;;;5.20;99.90;;;;;;4839867;29;20030;-93
2022/01/30 08:45:08;;;;;;;8.38;4.05;;;5.50;99.90;;;;;;4854756;29;20030;-93
2022/01/30 08:47:35;;;;;;;11.00;3.45;;;5.20;99.90;;;;;;4839621;29;20433;-93
2022/01/30 08:50:05;;;;;;;11.25;3.88;;;5.30;99.90;;;;;;4824280;29;20049;-94
2022/01/30 08:52:33;;;;;;;8.30;4.25;;;;;;;;;;4834884;29;20090;-94
2022/01/30 08:55:01;;;;;;;6.53;3.70;;;5.40;99.90;;;;;;4839172;29;20045;-94
2022/01/30 08:57:27;;;;;;;13.05;4.82;;;;;;;;;;4823992;29;20452;-94
2022/01/30 08:59:54;;;;;;;15.82;5.45;;;6.00;99.90;;;;;;4844797;29;20065;-94
2022/01/30 09:02:23;;;;;;;13.07;4.68;;;5.50;99.90;;;;;;4829071;29;20026;-93
2022/01/30 09:04:50;;;;;;;10.10;4.22;;;5.50;99.90;;;;;;4839692;29;20034;-94
2022/01/30 09:07:17;;;;;;;16.80;6.50;;;7.00;99.90;;;;;;4843848;29;20025;-95
2022/01/30 09:09:46;;;;;;;11.13;4.22;;;;;;;;;;4857393;29;20097;-94
2022/01/30 09:12:12;;;;;;;10.60;5.40;;;5.60;99.90;;;;;;4842142;29;20030;-93
2022/01/30 09:14:40;;;;;;;27.63;6.53;;;;;;;;;;4841502;29;20050;-93
2022/01/30 09:17:14;;;;;;;12.77;5.43;;;5.70;99.90;;;;;;4839035;29;20050;-94
2022/01/30 09:19:42;;;;;;;15.50;4.53;;;5.80;99.90;;;;;;4839658;29;20192;-93
2022/01/30 09:22:10;;;;;;;17.23;6.18;;;5.80;99.90;;;;;;4834646;29;20034;-94
2022/01/30 09:24:36;;;;;;;17.00;5.60;;;6.20;99.90;;;;;;4833663;29;20067;-94
2022/01/30 09:27:03;;;;;;;9.20;5.25;;;6.00;99.90;;;;;;4843493;29;20026;-93
2022/01/30 09:29:30;;;;;;;8.50;3.38;;;6.00;99.90;;;;;;4842942;29;20142;-94
2022/01/30 09:31:58;;;;;;;17.33;6.13;;;6.00;99.90;;;;;;4842410;29;20469;-93
2022/01/30 09:34:24;;;;;;;13.23;5.32;;;6.00;99.90;;;;;;4842400;29;20041;-94
2022/01/30 09:36:50;;;;;;;5.50;4.50;;;;;;;;;;4833166;29;20030;-94
2022/01/30 09:39:17;;;;;;;7.00;3.95;;;;;;;;;;4841952;29;20113;-94
2022/01/30 09:41:44;;;;;;;15.15;4.95;;;6.50;99.90;;;;;;4851143;29;20030;-93
2022/01/30 09:44:11;;;;;;;10.32;4.22;;;6.50;99.90;;;;;;4830107;29;20038;-94
2022/01/30 09:46:42;;;;;;;6.78;3.50;;;6.60;99.90;;;;;;4860938;29;20082;-94
2022/01/30 09:49:12;;;;;;;19.38;4.65;;;6.60;99.90;;;;;;4849157;29;20389;-94
2022/01/30 09:51:43;;;;;;;;;;;6.80;99.90;;;;;;4831101;29;20038;-93
2022/01/30 09:54:10;;;;;;;5.97;3.30;;;6.70;99.90;;;;;;4860484;29;19912;-94
2022/01/30 09:56:36;;;;;;;10.80;4.10;;;;;;;;;;4844938;29;20097;-93
2022/01/30 09:59:05;;;;;;;18.15;6.47;;;6.70;99.90;;;;;;4844881;29;20071;-94
2022/01/30 10:01:33;;;;;;;4.77;3.27;;;6.70;99.90;;;;;;4844959;29;20030;-94
2022/01/30 10:04:01;;;;;;;14.30;4.00;;;6.70;99.90;;;;;;4844853;29;20073;-94
2022/01/30 10:06:33;;;;;;;12.02;5.50;;;6.70;99.90;;;;;;4843817;29;20026;-94
2022/01/30 10:09:29;;;;;;;6.47;4.18;;;6.80;99.90;;;;;;4845572;29;20113;-94
2022/01/30 10:12:26;;;;;;;6.97;4.15;;;6.80;99.90;;;;;;4845244;29;20030;-94
2022/01/30 10:15:07;;;;;;;13.05;3.10;;;6.80;99.90;;;;;;4843856;29;20058;-94
2022/01/30 10:17:49;;;;;;;23.60;8.27;;;6.90;99.90;;;;;;4844747;29;20038;-94
2022/01/30 10:20:26;;;;;;;13.18;5.63;;;6.90;99.90;;;;;;4844626;29;20026;-94
2022/01/30 10:23:01;;;;;;;8.93;3.70;;;6.90;99.90;;;;;;4860540;29;20073;-94
2022/01/30 10:25:33;;;;;;;21.83;6.40;;;6.90;99.90;;;;;;4860154;29;20041;-93
2022/01/30 10:28:08;;;;;;;9.25;4.55;;;7.10;99.90;;;;;;4844404;29;20030;-93
2022/01/30 10:30:55;;;;;;;12.82;5.00;;;7.00;99.90;;;;;;4859816;29;20034;-94
2022/01/30 10:33:45;;;;;;;4.95;2.22;;;7.10;99.90;;;;;;4844133;29;20063;-94
2022/01/30 10:36:12;;;;;;;11.95;3.08;;;;;;;;;;4849851;29;20049;-94
2022/01/30 10:38:46;;;;;;;9.93;3.65;;;7.00;99.90;;;;;;4859121;29;20026;-93
2022/01/30 10:41:20;;;;;;;7.68;3.53;;;7.10;99.90;;;;;;4859439;29;20034;-94
2022/01/30 10:44:06;;;;;;;14.07;5.32;;;7.10;99.90;;;;;;4828962;29;20045;-94
2022/01/30 10:46:38;;;;;;;11.32;4.95;;;7.00;99.90;;;;;;4825283;29;20043;-93
2022/01/30 10:49:10;;;;;;;29.88;8.95;;;7.20;99.90;;;;;;4843872;29;20041;-93
2022/01/30 10:51:41;;;;;;;14.50;6.45;;;7.20;99.90;;;;;;4859225;29;20030;-93
2022/01/30 10:54:14;;;;;;;16.83;6.18;;;7.20;99.90;;;;;;4859669;29;20127;-93
2022/01/30 10:56:41;;;;;;;23.35;7.45;;;;;;;;;;4859166;29;20045;-93
2022/01/30 10:59:15;;;;;;;15.73;4.68;;;7.30;99.90;;;;;;4858381;29;20097;-92
2022/01/30 11:01:43;;;;;;;13.18;4.88;;;7.40;99.90;;;;;;4832309;29;20058;-93
2022/01/30 11:04:29;;;;;;;5.28;2.85;;;7.40;99.90;;;;;;4842843;29;20030;-93
2022/01/30 11:06:59;;;;;;;19.17;7.13;;;7.40;99.90;;;;;;4821867;29;20034;-92
2022/01/30 11:09:31;;;;;;;;;;;7.40;99.90;;;;;;4859401;29;20037;-93
2022/01/30 11:12:03;;;;;;;16.17;6.30;;;7.30;99.90;;;;;;4828572;29;19912;-93
2022/01/30 11:17:16;;;;;;;9.63;3.67;;;7.40;99.90;;;;;;4858729;29;20034;-93
2022/01/30 11:19:52;;;;;;;31.88;7.22;;;7.40;99.90;;;;;;4828192;29;20061;-93
2022/01/30 11:22:27;;;;;;;10.60;6.40;;;7.40;99.90;;;;;;4828978;29;20070;-93
2022/01/30 11:25:08;;;;;;;12.10;5.95;;;7.30;99.90;;;;;;4828268;29;20077;-93
2022/01/30 11:27:35;;;;;;;16.15;5.35;;;;;;;;;;4858882;29;20041;-93
2022/01/30 11:30:04;;;;;;;23.60;5.93;;;7.30;99.90;;;;;;4843017;29;20062;-93
2022/01/30 11:32:30;;;;;;;23.33;7.60;;;;;;;;;;4842826;29;20041;-93
2022/01/30 11:35:20;;;;;;;10.48;5.22;;;7.10;99.90;;;;;;4843553;29;20022;-93
2022/01/30 11:37:55;;;;;;;11.93;4.28;;;7.10;99.90;;;;;;4829842;29;20081;-93
2022/01/30 11:40:37;;;;;;;7.32;4.28;;;7.20;99.90;;;;;;4844528;29;20034;-94
2022/01/30 11:43:08;;;;;;;16.65;5.30;;;7.30;99.90;;;;;;4841076;29;20043;-94
2022/01/30 11:45:37;;;;;;;12.25;4.82;;;7.40;99.90;;;;;;4853644;29;20117;-94
2022/01/30 11:48:14;;;;;;;18.00;4.85;;;7.30;99.90;;;;;;4852541;29;20039;-93
2022/01/30 11:51:06;;;;;;;11.80;5.10;;;7.30;99.90;;;;;;4837382;29;20110;-93
2022/01/30 11:53:37;;;;;;;19.60;7.30;;;;;;;;;;4812196;29;20058;-94
2022/01/30 11:56:06;;;;;;;22.80;8.65;;;7.40;99.90;;;;;;4807313;29;20038;-95
2022/01/30 11:58:32;;;;;;;25.83;7.05;;;7.70;99.90;;;;;;4837199;29;20034;-94
2022/01/30 12:01:05;;;;;;;5.90;4.15;;;7.70;99.90;;;;;;4845276;29;20121;-94
2022/01/30 12:03:36;;;;;;;10.73;6.45;;;7.70;99.90;;;;;;4837381;29;20434;-94
2022/01/30 12:06:26;;;;;;;12.65;4.60;;;7.70;99.90;;;;;;4837925;29;20065;-94
2022/01/30 12:09:00;;;;;;;12.35;6.18;;;7.70;99.90;;;;;;4838011;29;20030;-94
2022/01/30 12:11:35;;;;;;;14.45;6.28;;;7.80;99.90;;;;;;4837686;29;20026;-94
2022/01/30 12:14:02;;;;;;;24.92;7.90;;;7.70;99.90;;;;;;4837763;29;20068;-94
2022/01/30 12:16:46;;;;;;;18.10;4.32;;;7.80;99.90;;;;;;4838175;29;20079;-93
2022/01/30 12:20:09;;;;;;;12.57;5.60;;;7.70;99.90;;;;;;4855921;29;20030;-94
2022/01/30 12:22:29;;;;;;;15.15;8.43;;;;;;;;;;4844998;29;20389;-94
2022/01/30 12:25:30;;;;;;;21.13;7.13;;;8.20;99.90;;;;;;4854883;29;20034;-93
2022/01/30 12:28:02;;;;;;;19.63;5.35;;;8.30;99.90;;;;;;4855459;29;20026;-94
2022/01/30 12:30:47;;;;;;;10.60;5.65;;;8.30;99.90;;;;;;4848401;29;20033;-93
2022/01/30 12:33:40;;;;;;;14.15;6.47;;;8.10;99.90;;;;;;4839452;29;20038;-92
2022/01/30 12:36:16;;;;;;;11.95;3.67;;;8.00;99.90;;;;;;4839361;29;20098;-93
2022/01/30 12:38:48;;;;;;;15.93;6.50;;;7.80;99.90;;;;;;4839634;29;20038;-93
2022/01/30 12:41:24;;;;;;;15.27;5.10;;;7.80;99.90;;;;;;4841103;29;20034;-93
2022/01/30 12:43:59;;;;;;;22.60;6.03;;;7.90;99.90;;;;;;4825647;29;20050;-93
2022/01/30 12:46:29;;;;;;;16.98;5.47;;;8.10;99.90;;;;;;4857843;29;20053;-93
2022/01/30 12:49:03;;;;;;;16.13;5.68;;;7.80;99.90;;;;;;4858122;29;20041;-93
2022/01/30 12:51:37;;;;;;;22.15;4.47;;;7.80;99.90;;;;;;4858363;29;20026;-93
2022/01/30 12:54:06;;;;;;;5.90;4.22;;;7.90;99.90;;;;;;4858816;29;20057;-93
2022/01/30 12:56:36;;;;;;;11.73;5.57;;;8.00;99.90;;;;;;4834034;29;20087;-93
2022/01/30 12:59:07;;;;;;;;;;;8.30;99.90;;;;;;4840100;29;20047;-93
2022/01/30 13:01:36;;;;;;;9.60;4.65;;;8.00;99.90;;;;;;4839751;29;19919;-93
2022/01/30 13:04:20;;;;;;;9.23;3.90;;;8.00;99.90;;;;;;4839396;29;20041;-93
2022/01/30 13:06:55;;;;;;;8.05;3.58;;;7.90;99.90;;;;;;4840040;29;20054;-93
2022/01/30 13:09:31;;;;;;;18.60;9.25;;;7.70;99.90;;;;;;4823671;29;20035;-93
2022/01/30 13:12:11;;;;;;;15.05;6.22;;;7.80;99.90;;;;;;4839336;29;20094;-93
2022/01/30 13:14:41;;;;;;;14.75;5.70;;;7.90;99.90;;;;;;4838971;29;20105;-93
2022/01/30 13:17:08;;;;;;;13.20;4.15;;;;;;;;;;4824929;29;20038;-94
2022/01/30 13:19:42;;;;;;;9.10;7.07;;;8.20;99.90;;;;;;4857352;29;20061;-93
2022/01/30 13:22:11;;;;;;;13.60;6.35;;;8.20;99.90;;;;;;4842207;29;20067;-93
2022/01/30 13:24:41;;;;;;;15.60;5.67;;;8.20;99.90;;;;;;4842283;29;20070;-95
2022/01/30 13:27:12;;;;;;;6.22;3.28;;;;;;;;;;4843597;29;20066;-94
2022/01/30 13:29:55;;;;;;;5.03;2.72;;;8.10;99.90;;;;;;4842622;29;20105;-93
2022/01/30 13:32:26;;;;;;;23.98;4.15;;;8.30;99.90;;;;;;4825408;29;20119;-93
2022/01/30 13:34:59;;;;;;;11.45;3.65;;;8.30;99.90;;;;;;4838982;29;20046;-93
2022/01/30 13:37:27;;;;;;;5.63;4.22;;;;;;;;;;4853927;29;20038;-93
2022/01/30 13:40:13;;;;;;;22.27;4.80;;;8.40;99.90;;;;;;4838615;29;20069;-93
2022/01/30 13:48:12;;;;;;;14.68;5.47;;;8.40;99.90;;;;;;4838128;29;20035;-93
2022/01/30 13:50:45;;;;;;;15.73;4.68;;;8.60;99.90;;;;;;4827657;29;20052;-93
2022/01/30 13:53:24;;;;;;;14.20;3.42;;;8.40;99.90;;;;;;4838771;29;20126;-93
2022/01/30 13:56:01;;;;;;;6.25;3.60;;;8.50;99.90;;;;;;4838888;29;20031;-94
2022/01/30 13:58:43;;;;;;;19.20;6.18;;;8.70;99.90;;;;;;4838334;29;20102;-93
2022/01/30 14:01:29;;;;;;;14.18;4.55;;;8.60;99.90;;;;;;4838968;29;20124;-93
2022/01/30 14:04:11;;;;;;;5.70;3.35;;;9.00;99.90;;;;;;4843138;29;20099;-92
2022/01/30 14:06:39;;;;;;;13.35;5.35;;;9.10;99.90;;;;;;4822503;29;20047;-93
2022/01/30 14:09:13;;;;;;;23.20;4.70;;;9.20;99.90;;;;;;4826148;29;20030;-93
2022/01/30 14:11:40;;;;;;;13.15;4.03;;;9.30;99.90;;;;;;4826200;29;20035;-93
2022/01/30 14:14:08;;;;;;;3.92;2.63;;;;;;;;;;4810998;29;20046;-93
2022/01/30 14:16:36;;;;;;;12.23;3.55;;;9.30;99.90;;;;;;4823501;29;20050;-93
2022/01/30 14:19:05;;;;;;;10.43;3.95;;;9.10;99.90;;;;;;4794383;29;20138;-93
2022/01/30 14:21:34;;;;;;;10.57;3.53;;;9.70;99.90;;;;;;4824212;29;20046;-93
2022/01/30 14:24:19;;;;;;;6.88;2.92;;;9.10;99.90;;;;;;4819770;29;20049;-92
2022/01/30 14:26:46;;;;;;;4.53;2.95;;;9.00;99.90;;;;;;4810549;29;20137;-93
2022/01/30 14:29:25;;;;;;;9.20;3.93;;;8.90;99.90;;;;;;4823920;29;20027;-92
2022/01/30 14:32:09;;;;;;;7.75;2.97;;;8.80;99.90;;;;;;4809517;29;20288;-93
2022/01/30 14:34:43;;;;;;;22.90;6.05;;;8.50;99.90;;;;;;4834332;29;20142;-92
2022/01/30 14:37:30;;;;;;;12.85;3.67;;;8.60;99.90;;;;;;4792019;29;20066;-92
2022/01/30 14:40:41;;;;;;;4.95;3.28;;;8.90;99.90;;;;;;4831633;29;20034;-93
2022/01/30 14:43:23;;;;;;;20.10;5.53;;;8.70;99.90;;;;;;4790852;29;20055;-93
2022/01/30 14:45:55;;;;;;;16.85;4.80;;;;;;;;;;4792580;29;20510;-93
2022/01/30 14:48:33;;;;;;;27.48;3.45;;;;;;;;;;4825892;29;20184;-93
2022/01/30 14:58:32;;;;;;;;;;;;;;;;;;;;;
2022/01/30 15:01:42;;;;;;;13.85;4.40;;;8.70;99.90;;;;;;4838367;29;20041;-91
2022/01/30 15:04:09;;;;;;;11.77;3.90;;;;;;;;;;4841369;29;20110;-93
2022/01/30 15:06:40;;;;;;;14.77;3.13;;;;;;;;;;4824308;29;20030;-93
2022/01/30 15:09:29;;;;;;;9.95;3.88;;;8.80;99.90;;;;;;4837755;29;20051;-93
2022/01/30 15:12:06;;;;;;;4.20;3.50;;;8.70;99.90;;;;;;4846627;29;20071;-95
2022/01/30 15:14:51;;;;;;;13.15;4.05;;;8.60;99.90;;;;;;4839183;29;20307;-93
2022/01/30 15:17:31;;;;;;;8.95;4.10;;;;;;;;;;4827333;29;20042;-94
2022/01/30 15:20:15;;;;;;;20.90;6.00;;;8.30;99.90;;;;;;4842105;29;20059;-93
2022/01/30 15:22:52;;;;;;;17.88;3.15;;;8.10;99.90;;;;;;4841190;29;20045;-93
2022/01/30 15:25:49;;;;;;;8.63;3.92;;;8.00;99.90;;;;;;4842474;29;20152;-92
2022/01/30 15:28:21;;;;;;;11.90;5.45;;;;;;;;;;4837978;29;20034;-94
2022/01/30 15:31:32;;;;;;;;;;;;;;;;;;;;;
2022/01/30 15:34:17;;;;;;;13.05;3.88;;;7.80;99.90;;;;;;4836615;29;20194;-93
2022/01/30 15:36:46;;;;;;;7.47;3.03;;;8.10;99.90;;;;;;4827545;29;20049;-94
2022/01/30 15:39:23;;;;;;;9.80;3.80;;;7.80;99.90;;;;;;4840633;29;20038;-94
2022/01/30 15:42:00;;;;;;;7.75;4.38;;;7.70;99.90;;;;;;4825958;29;20050;-95
2022/01/30 15:44:36;;;;;;;10.23;4.30;;;;;;;;;;4855833;29;20034;-93
2022/01/30 15:50:05;;;;;;;9.50;4.45;;;7.30;99.90;;;;;;4832905;29;20038;-93
2022/01/30 15:52:40;;;;;;;17.60;5.28;;;;;;;;;;4841028;29;20037;-94
2022/01/30 15:55:09;;;;;;;18.25;4.70;;;;;;;;;;4858381;29;20045;-94
2022/01/30 15:57:43;;;;;;;11.55;3.80;;;7.30;99.90;;;;;;4855665;29;20034;-96